Time;durP1;ratioP1;P1;durP2;ratioP2;P2;SDS_P1;SDS_P2;PMS_P1;PMS_P2;Temp;Humidity;BMP_temperature;BMP_pressure;BME280_temperature;BME280_humidity;BME280_pressure;Samples;Min_cycle;Max_cycle;Signal;HPM_P1;HPM_P2
2024/03/29 00:00:55;;;;;;;7.68;4.68;;;;;;;-0.90;100.00;96901.31;5008667;28;20124;-74
2024/03/29 00:03:20;;;;;;;8.07;4.20;;;;;;;-0.82;100.00;96897.69;4996836;28;20044;-74
2024/03/29 00:05:46;;;;;;;10.77;5.13;;;;;;;-0.79;100.00;96897.28;5012428;28;20030;-74
2024/03/29 00:08:12;;;;;;;9.85;4.47;;;;;;;-0.63;100.00;96897.94;5034170;28;20029;-75
2024/03/29 00:10:38;;;;;;;10.10;6.15;;;;;;;-0.47;100.00;96898.34;5035228;28;20071;-73
2024/03/29 00:13:04;;;;;;;8.45;5.20;;;;;;;-0.09;100.00;96904.91;5013539;28;20050;-74
2024/03/29 00:15:33;;;;;;;10.25;6.43;;;;;;;0.29;100.00;96904.25;5014649;28;20033;-74
2024/03/29 00:17:59;;;;;;;15.95;9.13;;;;;;;0.56;100.00;96899.78;5012438;28;20153;-74
2024/03/29 00:20:25;;;;;;;16.27;9.45;;;;;;;0.66;100.00;96900.13;4998978;28;20512;-74
2024/03/29 00:22:50;;;;;;;21.52;8.65;;;;;;;0.67;100.00;96896.47;5024793;28;20111;-74
2024/03/29 00:25:16;;;;;;;16.90;8.73;;;;;;;0.73;100.00;96898.28;5016816;28;20041;-74
2024/03/29 00:27:43;;;;;;;22.40;10.57;;;;;;;0.70;100.00;96901.34;5009541;28;20483;-74
2024/03/29 00:30:10;;;;;;;16.77;8.77;;;;;;;0.69;100.00;96905.03;5004299;28;20034;-74
2024/03/29 00:32:35;;;;;;;23.05;11.10;;;;;;;0.70;100.00;96900.53;5018891;28;20037;-74
2024/03/29 00:35:01;;;;;;;18.38;8.23;;;;;;;0.74;100.00;96899.09;5019615;28;20059;-74
2024/03/29 00:37:27;;;;;;;11.52;6.47;;;;;;;0.76;100.00;96894.41;5021781;28;20037;-74
2024/03/29 00:39:52;;;;;;;12.15;7.07;;;;;;;0.71;100.00;96902.97;5022410;28;20088;-74
2024/03/29 00:42:19;;;;;;;17.17;8.10;;;;;;;0.62;100.00;96898.94;5006774;28;20041;-74
2024/03/29 00:44:45;;;;;;;20.30;8.02;;;;;;;0.59;100.00;96899.34;5021807;28;20041;-74
2024/03/29 00:47:10;;;;;;;12.65;8.00;;;;;;;0.55;100.00;96898.94;5037746;28;20028;-74
2024/03/29 00:49:36;;;;;;;19.65;8.15;;;;;;;0.58;100.00;96895.06;5029795;28;20038;-74
2024/03/29 00:52:03;;;;;;;11.23;7.20;;;;;;;0.52;100.00;96890.63;5020612;28;20088;-73
2024/03/29 00:54:30;;;;;;;14.27;5.53;;;;;;;0.44;100.00;96903.03;5043506;28;20037;-74
2024/03/29 00:56:56;;;;;;;13.15;5.40;;;;;;;0.27;100.00;96907.13;5043213;28;20030;-74
2024/03/29 00:59:22;;;;;;;10.63;5.28;;;;;;;0.09;100.00;96901.66;5025521;28;20036;-75
2024/03/29 01:01:48;;;;;;;13.38;5.70;;;;;;;-0.08;100.00;96902.06;5021635;28;20038;-73
2024/03/29 01:04:14;;;;;;;8.63;5.30;;;;;;;-0.22;100.00;96903.84;5008820;28;20041;-74
2024/03/29 01:06:40;;;;;;;9.73;4.18;;;;;;;-0.27;100.00;96900.19;5041540;28;20033;-74
2024/03/29 01:09:06;;;;;;;10.02;4.93;;;;;;;-0.32;100.00;96903.47;5027371;28;20123;-73
2024/03/29 01:11:32;;;;;;;8.18;5.05;;;;;;;-0.38;100.00;96911.38;5039661;28;20033;-73
2024/03/29 01:13:58;;;;;;;9.45;5.10;;;;;;;-0.45;100.00;96903.41;5018957;28;20585;-74
2024/03/29 01:16:24;;;;;;;9.35;5.20;;;;;;;-0.56;100.00;96898.75;5020591;28;20048;-73
2024/03/29 01:18:51;;;;;;;11.70;5.00;;;;;;;-0.61;100.00;96899.31;5015735;28;20514;-74
2024/03/29 01:21:17;;;;;;;8.10;5.13;;;;;;;-0.61;100.00;96898.53;5021925;28;20037;-74
2024/03/29 01:23:44;;;;;;;11.52;4.47;;;;;;;-0.62;100.00;96894.28;5041214;28;20041;-73
2024/03/29 01:26:11;;;;;;;9.38;4.75;;;;;;;-0.50;100.00;96895.31;5020422;28;20030;-74
2024/03/29 01:28:37;;;;;;;12.43;5.43;;;;;;;-0.09;100.00;96892.50;5038207;28;20045;-73
2024/03/29 01:31:04;;;;;;;7.85;4.18;;;;;;;0.32;100.00;96888.00;5022025;28;20469;-74
2024/03/29 01:33:36;;;;;;;8.25;3.75;;;;;;;0.69;100.00;96890.97;5012679;28;20033;-74
2024/03/29 01:36:02;;;;;;;14.38;4.00;;;;;;;1.05;100.00;96883.31;5014357;28;20033;-74
2024/03/29 01:38:27;;;;;;;10.80;4.10;;;;;;;1.35;100.00;96889.88;5014961;28;20029;-74
2024/03/29 01:40:53;;;;;;;5.93;3.60;;;;;;;1.63;100.00;96889.53;5013456;28;20124;-74
2024/03/29 01:43:18;;;;;;;13.70;4.75;;;;;;;1.88;100.00;96890.38;4998067;28;20044;-74
2024/03/29 01:45:48;;;;;;;7.97;2.85;;;;;;;2.10;100.00;96890.81;5015235;28;20084;-74
2024/03/29 01:48:13;;;;;;;10.13;3.78;;;;;;;2.20;100.00;96891.13;5039945;28;20042;-74
2024/03/29 01:50:39;;;;;;;7.35;4.63;;;;;;;2.29;100.00;96885.53;5029894;28;20108;-74
2024/03/29 01:53:08;;;;;;;11.38;4.10;;;;;;;2.37;100.00;96886.06;5011896;28;20045;-75
2024/03/29 01:55:34;;;;;;;6.95;3.10;;;;;;;2.44;100.00;96887.88;5021005;28;20042;-74
2024/03/29 01:58:00;;;;;;;13.80;3.53;;;;;;;2.57;100.00;96893.03;5036201;28;20045;-74
2024/03/29 02:00:26;;;;;;;7.80;2.90;;;;;;;2.71;100.00;96891.84;5020675;28;20427;-74
2024/03/29 02:02:53;;;;;;;6.38;2.90;;;;;;;2.82;100.00;96892.97;5036923;28;20052;-74
2024/03/29 02:05:19;;;;;;;12.63;3.33;;;;;;;2.91;100.00;96890.81;5036367;28;20349;-74
2024/03/29 02:07:47;;;;;;;9.25;3.50;;;;;;;2.97;100.00;96882.78;5035163;28;20028;-74
2024/03/29 02:10:15;;;;;;;9.00;3.55;;;;;;;3.03;100.00;96884.56;5048493;28;20079;-74
2024/03/29 02:12:40;;;;;;;7.75;2.95;;;;;;;3.06;100.00;96880.63;5019752;28;20494;-74
2024/03/29 02:15:07;;;;;;;6.97;2.70;;;;;;;3.09;100.00;96882.84;5018655;28;20049;-74
2024/03/29 02:17:33;;;;;;;6.72;2.63;;;;;;;3.16;100.00;96874.81;5009802;28;20038;-74
2024/03/29 02:19:58;;;;;;;7.35;2.53;;;;;;;3.25;100.00;96876.13;4997553;28;20034;-74
2024/03/29 02:22:25;;;;;;;4.70;2.47;;;;;;;3.34;100.00;96874.78;4950596;28;1262538;-74
2024/03/29 02:24:55;;;;;;;7.80;2.47;;;;;;;3.40;100.00;96875.72;4997384;28;20045;-75
2024/03/29 02:27:21;;;;;;;7.25;2.95;;;;;;;3.45;100.00;96881.16;5035078;28;20080;-74
2024/03/29 02:29:47;;;;;;;4.30;2.22;;;;;;;3.49;100.00;96880.50;5005326;28;20045;-74
2024/03/29 02:32:13;;;;;;;7.75;2.25;;;;;;;3.51;100.00;96874.94;5001393;28;20046;-75
2024/03/29 02:34:38;;;;;;;5.30;2.25;;;;;;;3.55;100.00;96870.81;5038990;28;20071;-74
2024/03/29 02:37:04;;;;;;;10.10;2.42;;;;;;;3.57;100.00;96867.91;5045681;28;20033;-74
2024/03/29 02:39:32;;;;;;;6.30;2.35;;;;;;;3.53;100.00;96865.72;5053211;28;20079;-74
2024/03/29 02:41:58;;;;;;;11.93;2.40;;;;;;;3.42;100.00;96857.72;5020957;28;20536;-74
2024/03/29 02:44:23;;;;;;;5.97;2.65;;;;;;;3.29;100.00;96858.72;5020571;28;20112;-74
2024/03/29 02:46:49;;;;;;;7.28;2.38;;;;;;;3.12;100.00;96853.19;5013005;28;20035;-74
2024/03/29 02:49:15;;;;;;;3.38;1.88;;;;;;;3.01;100.00;96860.06;5011727;28;20036;-74
2024/03/29 02:51:40;;;;;;;5.80;1.80;;;;;;;2.92;100.00;96850.81;5034478;28;20036;-74
2024/03/29 02:54:06;;;;;;;7.65;2.72;;;;;;;2.85;100.00;96860.69;5019623;28;20032;-74
2024/03/29 02:56:34;;;;;;;9.75;2.42;;;;;;;2.86;100.00;96857.00;5009985;28;20036;-74
2024/03/29 02:58:59;;;;;;;5.05;1.75;;;;;;;2.89;100.00;96842.50;5020525;28;20067;-74
2024/03/29 03:01:25;;;;;;;4.65;1.83;;;;;;;2.86;100.00;96847.22;5053395;28;20068;-74
2024/03/29 03:03:51;;;;;;;4.70;1.90;;;;;;;2.89;100.00;96851.25;5020170;28;20036;-74
2024/03/29 03:06:16;;;;;;;5.85;1.80;;;;;;;3.01;100.00;96851.31;5032352;28;20041;-74
2024/03/29 03:11:26;;;;;;;3.72;1.85;;;;;;;3.15;100.00;96849.28;5038992;28;20436;-75
2024/03/29 03:13:51;;;;;;;7.45;2.55;;;;;;;3.06;100.00;96846.13;5019828;28;20029;-74
2024/03/29 03:16:17;;;;;;;6.70;2.42;;;;;;;2.92;100.00;96845.50;5027835;28;20469;-74
2024/03/29 03:18:43;;;;;;;5.63;2.78;;;;;;;2.79;100.00;96845.66;5000843;28;20092;-74
2024/03/29 03:21:08;;;;;;;8.90;4.25;;;;;;;2.71;100.00;96838.81;5032884;28;20030;-74
2024/03/29 03:23:34;;;;;;;4.57;2.10;;;;;;;2.67;100.00;96847.41;5000656;28;20546;-74
2024/03/29 03:26:03;;;;;;;8.85;4.80;;;;;;;2.64;100.00;96851.31;5013250;28;20038;-76
2024/03/29 03:28:29;;;;;;;5.05;3.05;;;;;;;2.60;100.00;96853.63;5011103;28;20041;-74
2024/03/29 03:30:55;;;;;;;5.90;2.78;;;;;;;2.48;100.00;96852.72;5014190;28;20042;-74
2024/03/29 03:33:21;;;;;;;8.20;2.20;;;;;;;2.40;100.00;96847.72;5041598;28;20117;-74
2024/03/29 03:35:46;;;;;;;7.43;2.00;;;;;;;2.27;100.00;96845.19;5021110;28;20434;-74
2024/03/29 03:38:12;;;;;;;4.93;2.17;;;;;;;2.15;100.00;96847.75;5002483;28;20041;-74
2024/03/29 03:40:39;;;;;;;7.40;1.85;;;;;;;2.21;100.00;96846.88;5016603;28;20029;-74
2024/03/29 03:43:06;;;;;;;6.05;2.88;;;;;;;2.11;100.00;96850.00;5000206;28;20073;-74
2024/03/29 03:45:36;;;;;;;7.07;3.38;;;;;;;1.98;100.00;96844.84;5035189;28;20478;-74
2024/03/29 03:48:05;;;;;;;7.32;3.38;;;;;;;1.96;100.00;96847.72;5036191;28;20033;-74
2024/03/29 03:50:31;;;;;;;4.70;2.50;;;;;;;1.96;100.00;96839.78;5003474;28;20543;-73
2024/03/29 03:52:57;;;;;;;7.00;3.20;;;;;;;2.01;100.00;96847.03;5017966;28;20125;-74
2024/03/29 03:55:23;;;;;;;5.30;2.80;;;;;;;2.13;100.00;96845.31;5050762;28;20021;-74
2024/03/29 03:57:48;;;;;;;5.43;2.30;;;;;;;2.30;100.00;96840.28;5019762;28;20037;-74
2024/03/29 04:00:14;;;;;;;7.07;3.15;;;;;;;2.45;100.00;96850.50;5032561;28;20476;-74
2024/03/29 04:02:40;;;;;;;5.78;2.83;;;;;;;2.58;100.00;96847.72;5031544;28;20530;-74
2024/03/29 04:05:07;;;;;;;8.45;2.45;;;;;;;2.67;100.00;96842.91;5008341;28;20037;-74
2024/03/29 04:07:35;;;;;;;6.90;2.40;;;;;;;2.76;100.00;96852.22;5039561;28;20124;-74
2024/03/29 04:10:00;;;;;;;4.00;2.03;;;;;;;2.78;100.00;96850.16;5018798;28;20037;-74
2024/03/29 04:12:26;;;;;;;7.03;2.17;;;;;;;2.88;100.00;96849.63;5016243;28;20084;-74
2024/03/29 04:14:51;;;;;;;7.53;2.80;;;;;;;2.95;100.00;96857.50;5044991;28;20029;-74
2024/03/29 04:17:17;;;;;;;8.05;2.90;;;;;;;3.02;100.00;96850.28;5015191;28;20083;-74
2024/03/29 04:19:43;;;;;;;4.80;2.17;;;;;;;3.12;100.00;96855.03;5015643;28;20033;-75
2024/03/29 04:22:08;;;;;;;5.70;2.40;;;;;;;3.19;100.00;96855.78;5032664;28;20503;-74
2024/03/29 04:24:34;;;;;;;5.28;2.47;;;;;;;3.25;100.00;96846.91;5033361;28;20095;-74
2024/03/29 04:27:00;;;;;;;5.40;2.63;;;;;;;3.27;100.00;96845.66;5022574;28;20040;-74
2024/03/29 04:29:25;;;;;;;4.75;2.58;;;;;;;3.26;100.00;96835.28;5006461;28;20104;-74
2024/03/29 04:31:51;;;;;;;6.72;2.40;;;;;;;3.27;100.00;96839.53;4999703;28;20052;-74
2024/03/29 04:34:16;;;;;;;4.40;2.60;;;;;;;3.27;100.00;96844.84;5016607;28;20040;-74
2024/03/29 04:36:42;;;;;;;6.38;2.90;;;;;;;3.27;100.00;96850.16;5004235;28;20388;-74
2024/03/29 04:39:08;;;;;;;5.55;2.72;;;;;;;3.27;100.00;96845.66;5006059;28;20477;-74
2024/03/29 04:41:36;;;;;;;4.38;2.58;;;;;;;3.32;100.00;96850.28;5031738;28;20547;-74
2024/03/29 04:44:03;;;;;;;5.55;1.98;;;;;;;3.38;100.00;96857.34;5016358;28;20366;-74
2024/03/29 04:46:31;;;;;;;3.83;2.03;;;;;;;3.46;100.00;96853.56;5033668;28;20487;-74
2024/03/29 04:48:57;;;;;;;6.10;2.60;;;;;;;3.50;100.00;96863.50;5051325;28;20039;-74
2024/03/29 04:51:23;;;;;;;5.15;2.30;;;;;;;3.51;100.00;96859.81;5005745;28;20042;-74
2024/03/29 04:53:49;;;;;;;4.25;2.28;;;;;;;3.56;100.00;96856.47;4979936;28;20034;-74
2024/03/29 04:56:15;;;;;;;6.22;2.70;;;;;;;3.60;100.00;96856.84;5014871;28;20030;-74
2024/03/29 04:58:41;;;;;;;7.53;1.90;;;;;;;3.63;100.00;96861.72;5047688;28;20446;-73
2024/03/29 05:01:07;;;;;;;4.18;1.77;;;;;;;3.67;100.00;96863.66;5015763;28;20117;-73
2024/03/29 05:03:33;;;;;;;4.80;2.47;;;;;;;3.72;100.00;96861.16;4996158;28;20516;-74
2024/03/29 05:05:59;;;;;;;4.38;1.67;;;;;;;3.79;100.00;96860.25;5048131;28;20029;-74
2024/03/29 05:08:24;;;;;;;5.60;2.00;;;;;;;3.78;100.00;96869.25;5011189;28;20036;-74
2024/03/29 05:10:51;;;;;;;2.83;1.30;;;;;;;3.81;100.00;96872.28;5024744;28;20029;-74
2024/03/29 05:13:18;;;;;;;4.57;1.83;;;;;;;3.88;100.00;96870.31;4984948;28;20049;-74
2024/03/29 05:15:44;;;;;;;2.50;1.58;;;;;;;3.86;100.00;96872.38;5013102;28;20052;-74
2024/03/29 05:18:10;;;;;;;3.47;1.65;;;;;;;3.88;100.00;96865.00;5027123;28;20387;-74
2024/03/29 05:20:36;;;;;;;3.33;1.58;;;;;;;3.84;100.00;96866.50;5008964;28;20125;-74
2024/03/29 05:23:02;;;;;;;4.32;1.50;;;;;;;3.79;100.00;96861.06;5029318;28;20033;-75
2024/03/29 05:25:27;;;;;;;6.00;1.63;;;;;;;3.74;100.00;96859.06;5035469;28;20029;-74
2024/03/29 05:27:53;;;;;;;2.00;1.20;;;;;;;3.73;100.00;96857.47;5015041;28;20064;-74
2024/03/29 05:30:19;;;;;;;2.38;1.60;;;;;;;3.77;100.00;96870.28;4999031;28;20034;-74
2024/03/29 05:32:45;;;;;;;2.42;1.60;;;;;;;3.74;100.00;96876.88;5051554;28;20357;-74
2024/03/29 05:35:11;;;;;;;1.73;1.45;;;;;;;3.74;100.00;96880.34;5034647;28;20044;-74
2024/03/29 05:37:37;;;;;;;3.65;1.60;;;;;;;3.74;100.00;96879.53;5006882;28;20044;-74
2024/03/29 05:40:05;;;;;;;3.63;1.83;;;;;;;3.78;100.00;96882.53;5006499;28;20045;-74
2024/03/29 05:42:36;;;;;;;4.55;2.08;;;;;;;3.74;100.00;96880.34;5011201;28;20045;-75
2024/03/29 05:45:20;;;;;;;4.03;2.10;;;;;;;3.77;100.00;96881.72;5023086;28;20022;-74
2024/03/29 05:47:46;;;;;;;3.58;1.83;;;;;;;3.78;100.00;96893.97;5038251;28;20029;-74
2024/03/29 05:50:11;;;;;;;2.22;1.33;;;;;;;3.83;100.00;96887.97;5008500;28;20046;-74
2024/03/29 05:52:37;;;;;;;5.85;2.10;;;;;;;3.95;100.00;96900.25;5003558;28;20357;-74
2024/03/29 05:55:06;;;;;;;2.92;1.70;;;;;;;4.02;100.00;96894.00;5037585;28;20025;-76
2024/03/29 05:57:34;;;;;;;6.85;1.70;;;;;;;4.11;100.00;96890.00;5038592;28;20083;-75
2024/03/29 06:00:00;;;;;;;5.35;2.00;;;;;;;4.16;100.00;96898.91;5026834;28;20550;-74
2024/03/29 06:02:25;;;;;;;3.28;1.33;;;;;;;4.27;100.00;96894.63;5021240;28;20087;-74
2024/03/29 06:04:51;;;;;;;5.90;2.50;;;;;;;4.31;100.00;96897.63;5020144;28;20033;-74
2024/03/29 06:07:17;;;;;;;2.20;1.50;;;;;;;4.35;100.00;96896.94;5009195;28;20032;-75
2024/03/29 06:09:42;;;;;;;6.15;1.63;;;;;;;4.33;100.00;96901.69;5021079;28;20048;-74
2024/03/29 06:12:11;;;;;;;1.65;1.20;;;;;;;4.34;100.00;96905.97;5013732;28;20049;-74
2024/03/29 06:17:23;;;;;;;4.60;1.85;;;;;;;4.35;100.00;96904.13;5020594;28;20449;-74
2024/03/29 06:20:00;;;;;;;2.95;1.10;;;;;;;4.34;100.00;96899.81;5034507;28;20040;-74
2024/03/29 06:22:29;;;;;;;2.70;1.20;;;;;;;4.32;100.00;96904.59;5026569;28;20028;-74
2024/03/29 06:24:58;;;;;;;1.20;0.90;;;;;;;4.31;100.00;96903.78;5037797;28;20064;-74
2024/03/29 06:27:25;;;;;;;1.20;0.98;;;;;;;4.32;100.00;96905.41;5033445;28;20036;-75
2024/03/29 06:29:51;;;;;;;1.15;0.95;;;;;;;4.34;100.00;96913.13;5021170;28;20041;-74
2024/03/29 06:32:18;;;;;;;1.42;0.90;;;;;;;4.31;100.00;96898.47;5037532;28;20033;-74
2024/03/29 06:34:47;;;;;;;1.77;0.80;;;;;;;4.39;100.00;96908.75;5020948;28;20376;-74
2024/03/29 06:37:13;;;;;;;2.38;1.00;;;;;;;4.40;100.00;96906.91;4996555;28;20037;-74
2024/03/29 06:39:39;;;;;;;1.42;0.90;;;;;;;4.45;100.00;96909.69;5014422;28;20048;-74
2024/03/29 06:42:07;;;;;;;2.97;1.10;;;;;;;4.50;100.00;96915.13;5047270;28;20109;-74
2024/03/29 06:44:33;;;;;;;1.58;1.20;;;;;;;4.57;100.00;96918.47;5045959;28;20026;-74
2024/03/29 06:46:59;;;;;;;1.40;1.00;;;;;;;4.61;100.00;96914.31;5045197;28;20029;-74
2024/03/29 06:49:25;;;;;;;2.22;1.00;;;;;;;4.67;100.00;96914.41;5037935;28;20044;-74
2024/03/29 06:51:51;;;;;;;1.30;0.90;;;;;;;4.76;100.00;96921.84;5004416;28;20617;-74
2024/03/29 06:54:16;;;;;;;4.07;1.20;;;;;;;4.85;100.00;96922.28;5019847;28;20119;-74
2024/03/29 06:56:42;;;;;;;1.63;1.20;;;;;;;4.85;100.00;96909.78;4998567;28;20038;-74
2024/03/29 06:59:08;;;;;;;1.70;1.05;;;;;;;5.14;100.00;96909.84;5017066;28;20080;-74
2024/03/29 07:01:34;;;;;;;3.13;1.13;;;;;;;5.39;100.00;96914.03;5031060;28;20133;-74
2024/03/29 07:04:01;;;;;;;2.95;1.20;;;;;;;5.63;100.00;96917.44;4997675;28;20385;-74
2024/03/29 07:06:27;;;;;;;2.78;1.10;;;;;;;5.55;100.00;96921.28;5000519;28;20580;-74
2024/03/29 07:08:53;;;;;;;2.55;0.80;;;;;;;5.57;100.00;96913.88;5016550;28;20033;-75
2024/03/29 07:11:18;;;;;;;0.80;0.80;;;;;;;5.93;100.00;96922.53;5043830;28;20032;-75
2024/03/29 07:13:44;;;;;;;1.23;1.05;;;;;;;6.37;100.00;96920.88;5019969;28;20029;-75
2024/03/29 07:16:09;;;;;;;3.72;2.10;;;;;;;6.89;100.00;96925.09;5032686;28;20034;-75
2024/03/29 07:18:35;;;;;;;4.53;1.10;;;;;;;7.53;100.00;96923.75;5004344;28;20044;-75
2024/03/29 07:21:01;;;;;;;3.47;1.20;;;;;;;7.72;100.00;96927.72;5049792;28;20037;-75
2024/03/29 07:23:26;;;;;;;3.15;0.95;;;;;;;7.67;100.00;96931.16;5018924;28;20500;-75
2024/03/29 07:26:03;;;;;;;4.70;1.45;;;;;;;7.41;100.00;96931.91;5012906;28;20083;-75
2024/03/29 07:28:29;;;;;;;1.63;0.98;;;;;;;7.36;100.00;96935.34;5035099;28;20033;-75
2024/03/29 07:30:55;;;;;;;4.43;1.05;;;;;;;7.60;100.00;96935.09;5046164;28;20381;-75
2024/03/29 07:33:28;;;;;;;3.45;0.90;;;;;;;8.22;100.00;96934.63;5016644;28;20037;-75
2024/03/29 07:35:54;;;;;;;;;;;;;;;8.40;100.00;96941.50;5032158;28;20034;-75
2024/03/29 07:38:21;;;;;;;1.45;0.85;;;;;;;8.72;100.00;96930.75;5032398;28;19921;-75
2024/03/29 07:40:47;;;;;;;1.23;0.80;;;;;;;8.79;100.00;96935.91;5016368;28;20056;-76
2024/03/29 07:43:16;;;;;;;2.25;0.88;;;;;;;8.96;100.00;96938.41;5023296;28;20473;-76
2024/03/29 07:45:45;;;;;;;3.55;1.00;;;;;;;9.69;100.00;96941.97;5023205;28;20038;-76
2024/03/29 07:48:15;;;;;;;1.10;1.00;;;;;;;10.18;100.00;96943.41;5041294;28;20056;-76
2024/03/29 07:50:44;;;;;;;2.45;1.60;;;;;;;10.98;100.00;96954.44;5040283;28;20038;-76
2024/03/29 07:53:10;;;;;;;3.00;1.33;;;;;;;11.55;100.00;96955.09;5033625;28;20041;-76
2024/03/29 07:55:37;;;;;;;2.42;0.90;;;;;;;11.00;100.00;96948.78;5024471;28;20040;-76
2024/03/29 07:58:05;;;;;;;6.38;2.63;;;;;;;9.22;100.00;96956.25;5022667;28;20057;-76
2024/03/29 08:00:32;;;;;;;4.43;2.20;;;;;;;9.19;100.00;96959.44;5014403;28;20048;-76
2024/03/29 08:03:01;;;;;;;2.22;1.33;;;;;;;9.56;100.00;96955.88;5017640;28;20037;-76
2024/03/29 08:05:27;;;;;;;3.97;1.50;;;;;;;8.55;100.00;96965.72;5019010;28;20033;-75
2024/03/29 08:07:54;;;;;;;6.57;3.72;;;;;;;8.69;100.00;96971.44;5040308;28;20029;-76
2024/03/29 08:10:20;;;;;;;3.25;2.22;;;;;;;10.57;100.00;96972.47;5025074;28;20100;-76
2024/03/29 08:12:46;;;;;;;3.20;2.25;;;;;;;11.86;100.00;96976.53;5021390;28;20040;-76
2024/03/29 08:15:12;;;;;;;3.75;2.80;;;;;;;12.17;100.00;96981.72;5018084;28;20034;-77
2024/03/29 08:17:37;;;;;;;5.30;3.63;;;;;;;11.36;100.00;96975.59;5042867;28;20036;-77
2024/03/29 08:20:04;;;;;;;2.28;1.67;;;;;;;11.32;100.00;96980.72;5003862;28;20034;-77
2024/03/29 08:22:33;;;;;;;2.83;2.03;;;;;;;12.02;100.00;96983.44;5023531;28;20127;-76
2024/03/29 08:25:02;;;;;;;4.38;2.55;;;;;;;13.32;100.00;96982.97;5014981;28;20460;-76
2024/03/29 08:27:27;;;;;;;2.65;2.33;;;;;;;14.29;100.00;96979.09;5010328;28;20049;-76
2024/03/29 08:29:54;;;;;;;1.50;1.00;;;;;;;12.71;100.00;96987.03;5008940;28;20092;-76
2024/03/29 08:32:19;;;;;;;2.28;1.50;;;;;;;13.71;100.00;96992.03;5041080;28;20025;-76
2024/03/29 08:34:45;;;;;;;2.53;1.60;;;;;;;12.95;100.00;96992.47;5008026;28;20036;-76
2024/03/29 08:37:10;;;;;;;2.05;1.00;;;;;;;12.05;100.00;96999.03;5002874;28;20418;-76
2024/03/29 08:39:39;;;;;;;3.75;1.52;;;;;;;11.50;100.00;96992.78;5032105;28;20063;-76
2024/03/29 08:42:08;;;;;;;2.83;1.00;;;;;;;11.21;100.00;96998.75;5020235;28;20042;-76
2024/03/29 08:44:35;;;;;;;2.95;1.70;;;;;;;11.10;100.00;96999.06;5037322;28;20034;-75
2024/03/29 08:47:01;;;;;;;2.45;1.50;;;;;;;11.05;100.00;96996.38;5031724;28;20064;-75
2024/03/29 08:49:27;;;;;;;1.80;1.00;;;;;;;10.94;100.00;97004.44;5008976;28;20563;-75
2024/03/29 08:51:53;;;;;;;3.15;2.05;;;;;;;10.72;100.00;97007.41;5028963;28;20048;-75
2024/03/29 08:54:19;;;;;;;2.95;1.80;;;;;;;10.55;100.00;97007.66;5036315;28;20025;-75
2024/03/29 08:56:47;;;;;;;3.97;1.00;;;;;;;10.54;100.00;97006.06;5027590;28;20545;-75
2024/03/29 08:59:14;;;;;;;4.40;0.95;;;;;;;10.62;100.00;96993.16;5035585;28;20391;-75
2024/03/29 09:01:45;;;;;;;3.28;1.02;;;;;;;10.68;100.00;97005.53;5020740;28;20133;-75
2024/03/29 09:04:11;;;;;;;1.75;1.10;;;;;;;10.67;100.00;97003.91;5045869;28;20395;-76
2024/03/29 09:06:37;;;;;;;2.00;0.90;;;;;;;10.67;100.00;97002.03;5000746;28;20038;-75
2024/03/29 09:09:04;;;;;;;3.55;1.02;;;;;;;10.73;100.00;97010.91;5072158;28;20025;-75
2024/03/29 09:11:30;;;;;;;4.15;1.00;;;;;;;10.67;100.00;97015.47;5011514;28;20372;-75
2024/03/29 09:13:58;;;;;;;2.70;1.00;;;;;;;10.69;100.00;97017.88;5036921;28;20036;-75
2024/03/29 09:16:25;;;;;;;3.63;1.85;;;;;;;12.45;100.00;97013.34;5037004;28;20051;-75
2024/03/29 09:18:51;;;;;;;4.03;1.75;;;;;;;14.47;100.00;97017.19;5021558;28;20037;-75
2024/03/29 09:21:17;;;;;;;3.33;1.38;;;;;;;15.70;100.00;97013.31;5021450;28;20029;-75
2024/03/29 09:23:42;;;;;;;4.18;1.48;;;;;;;15.65;100.00;97018.78;5021655;28;20114;-75
2024/03/29 09:26:08;;;;;;;1.83;1.27;;;;;;;16.49;100.00;97018.41;5021321;28;20044;-74
2024/03/29 09:28:37;;;;;;;2.15;1.52;;;;;;;16.76;100.00;97027.56;5021321;28;20063;-76
2024/03/29 09:31:02;;;;;;;3.45;1.40;;;;;;;16.70;100.00;97040.47;5022281;28;20028;-75
2024/03/29 09:33:28;;;;;;;2.92;1.38;;;;;;;15.58;100.00;97037.31;5039568;28;20422;-75
2024/03/29 09:35:54;;;;;;;1.88;1.15;;;;;;;15.94;100.00;97042.91;5022242;28;20471;-74
2024/03/29 09:38:21;;;;;;;4.70;1.20;;;;;;;16.02;100.00;97044.09;5022116;28;20044;-75
2024/03/29 09:40:46;;;;;;;3.47;1.73;;;;;;;17.03;96.32;97034.81;5038187;28;20359;-75
2024/03/29 09:43:15;;;;;;;2.97;1.17;;;;;;;16.12;96.19;97041.19;5038246;28;20112;-76
2024/03/29 09:45:40;;;;;;;5.25;1.42;;;;;;;16.92;86.98;97047.03;5022142;28;20044;-75
2024/03/29 09:48:08;;;;;;;5.38;1.42;;;;;;;15.74;89.40;97043.28;5021990;28;20043;-75
2024/03/29 09:50:38;;;;;;;4.85;1.58;;;;;;;14.48;97.78;97046.66;5054609;28;20055;-75
2024/03/29 09:53:05;;;;;;;3.10;1.33;;;;;;;15.82;90.33;97046.13;5054536;28;20048;-75
2024/03/29 09:55:30;;;;;;;4.32;1.50;;;;;;;15.94;83.71;97048.31;5054426;28;20049;-76
2024/03/29 09:57:57;;;;;;;3.03;1.20;;;;;;;13.90;95.63;97043.38;5021801;28;20478;-75
2024/03/29 10:00:24;;;;;;;3.42;2.42;;;;;;;13.35;99.83;97054.47;5021867;28;20038;-76
2024/03/29 10:02:50;;;;;;;3.58;1.40;;;;;;;15.24;94.31;97056.59;5054511;28;20029;-76
2024/03/29 10:05:16;;;;;;;2.85;1.13;;;;;;;17.33;73.14;97059.59;5054355;28;20028;-76
2024/03/29 10:07:42;;;;;;;2.40;1.13;;;;;;;18.27;68.34;97049.50;5054720;28;20463;-74
2024/03/29 10:10:11;;;;;;;3.05;0.98;;;;;;;16.74;76.57;97054.19;5037971;28;20131;-75
2024/03/29 10:12:37;;;;;;;2.67;1.10;;;;;;;17.70;70.70;97057.56;5054179;28;20021;-76
2024/03/29 10:15:11;;;;;;;1.67;0.77;;;;;;;16.43;73.22;97057.63;5037917;28;20029;-76
2024/03/29 10:17:39;;;;;;;3.45;0.93;;;;;;;15.00;73.78;97051.31;5023470;28;20037;-76
2024/03/29 10:20:05;;;;;;;3.55;1.10;;;;;;;14.30;80.96;97059.06;5021811;28;20106;-75
2024/03/29 10:22:41;;;;;;;1.50;0.95;;;;;;;14.87;73.75;97059.09;5021237;28;20041;-75
2024/03/29 10:25:07;;;;;;;1.48;0.95;;;;;;;14.25;77.34;97063.72;5037753;28;20044;-76
2024/03/29 10:27:33;;;;;;;2.95;1.27;;;;;;;14.95;75.14;97063.00;5021133;28;20032;-75
2024/03/29 10:29:59;;;;;;;3.75;1.75;;;;;;;16.65;64.56;97066.91;5037159;28;20064;-76
2024/03/29 10:32:25;;;;;;;2.85;1.20;;;;;;;16.33;61.37;97071.38;5021213;28;20131;-76
2024/03/29 10:34:51;;;;;;;5.82;1.50;;;;;;;15.68;63.42;97072.34;5021057;28;20029;-75
2024/03/29 10:37:25;;;;;;;4.00;1.40;;;;;;;16.26;62.71;97070.97;5021230;28;20074;-76
2024/03/29 10:39:50;;;;;;;2.58;1.13;;;;;;;15.71;61.53;97066.34;5053790;28;20373;-75
2024/03/29 10:42:17;;;;;;;4.65;1.50;;;;;;;15.96;61.69;97067.78;5037412;28;20032;-75
2024/03/29 10:44:43;;;;;;;3.35;0.90;;;;;;;15.93;59.45;97056.72;5036892;28;20033;-75
2024/03/29 10:47:09;;;;;;;3.28;1.45;;;;;;;17.34;57.04;97070.16;5020975;28;20032;-75
2024/03/29 10:49:36;;;;;;;3.42;1.10;;;;;;;18.65;54.30;97070.66;5037192;28;20086;-74
2024/03/29 10:52:04;;;;;;;2.08;0.80;;;;;;;18.17;51.07;97064.16;5036831;28;20043;-76
2024/03/29 10:54:30;;;;;;;2.90;0.85;;;;;;;16.62;54.59;97075.66;5053517;28;20053;-74
2024/03/29 10:57:00;;;;;;;2.25;0.80;;;;;;;14.98;60.13;97072.44;5020702;28;20082;-75
2024/03/29 10:59:39;;;;;;;2.53;1.08;;;;;;;14.41;64.84;97077.84;5053434;28;20108;-75
2024/03/29 11:02:13;;;;;;;1.95;1.63;;;;;;;15.13;63.92;97074.91;5020632;28;20041;-76
2024/03/29 11:04:41;;;;;;;2.72;1.00;;;;;;;16.76;59.74;97072.91;5037834;28;20533;-74
2024/03/29 11:07:12;;;;;;;1.92;1.17;;;;;;;18.95;54.83;97062.72;5036963;28;20353;-74
2024/03/29 11:09:38;;;;;;;2.25;0.93;;;;;;;20.03;48.12;97063.47;5005421;28;20029;-75
2024/03/29 11:12:05;;;;;;;4.15;1.20;;;;;;;20.27;47.58;97059.31;5053365;28;20071;-74
2024/03/29 11:14:36;;;;;;;2.03;0.80;;;;;;;18.99;47.05;97055.50;5036259;28;20451;-74
2024/03/29 11:17:03;;;;;;;3.45;2.40;;;;;;;16.09;53.67;97066.19;5020529;28;20041;-74
2024/03/29 11:19:29;;;;;;;2.33;0.90;;;;;;;15.28;55.94;97063.03;5053254;28;20051;-74
2024/03/29 11:21:55;;;;;;;2.10;1.10;;;;;;;14.64;58.62;97065.41;5036491;28;20471;-74
2024/03/29 11:24:24;;;;;;;1.42;0.93;;;;;;;14.46;60.11;97067.75;5020262;28;20036;-74
2024/03/29 11:26:50;;;;;;;1.92;0.70;;;;;;;14.17;60.75;97065.16;5053211;28;20045;-74
2024/03/29 11:29:22;;;;;;;3.15;0.70;;;;;;;14.00;62.26;97068.34;5036393;28;20098;-76
2024/03/29 11:31:58;;;;;;;2.67;1.02;;;;;;;13.68;64.21;97060.06;5036388;28;20036;-73
2024/03/29 11:34:24;;;;;;;3.65;0.80;;;;;;;13.22;67.28;97069.38;5036698;28;20029;-73